Flight Track Log - Related Links

Times and Time Zones

All times are in EDT time to prevent confusion due to time zone crossing. See the N319EE flight status page for this flight to view local times or setup timezone preferences in your user account.

Time Position Orientation Groundspeed Altitude Reporting Facility
EDT Latitude Longitude Course Direction KTS MPH feet Rate Location/Type
Mon 06:45:07 PM 42.2181 -75.9203 71° East 168 193 3,100  Level Boston Center
Mon 06:46:08 PM 42.2397 -75.8619 63° Northeast 173 199 5,400 2,115 Climbing Boston Center
Mon 06:47:09 PM 42.2608 -75.8042 64° Northeast 174 200 7,400 1,872 Climbing Boston Center
Mon 06:48:13 PM 42.2864 -75.7411 61° Northeast 187 215 9,300 1,872 Climbing Boston Center
Mon 06:49:14 PM 42.2886 -75.6697 88° East 199 229 11,300 1,820 Climbing Boston Center
Mon 06:50:00 PM 42.0459 -75.6869 71° East  Level Estimated
Mon 06:50:15 PM 42.2717 -75.5978 108° East 203 234 13,000  Level Boston Center
Mon 06:51:17 PM 42.2444 -75.4872 108° East 256 295 13,000  Level Boston Center
Mon 06:52:18 PM 42.2197 -75.3872 108° East 279 321 13,000  Level Boston Center
Mon 06:53:19 PM 42.1967 -75.2906 108° East 274 315 13,000  Level Boston Center
Mon 06:54:22 PM 42.1725 -75.1936 109° East 274 315 13,000  Level Boston Center
Mon 06:55:23 PM 42.1494 -75.0994 108° East 272 313 13,000  Level Boston Center
Mon 06:56:24 PM 42.1264 -75.0036 108° East 272 313 13,000  Level Boston Center
Mon 06:57:28 PM 42.0972 -74.8897 109° East 269 310 13,000  Level Boston Center
Mon 06:58:28 PM 42.0733 -74.7936 108° East 272 313 13,000  Level Boston Center
Mon 06:59:29 PM 42.0475 -74.6908 109° East 271 312 13,000 -290 Level Boston Center
Mon 07:00:32 PM 42.0228 -74.5906 108° East 280 322 12,400 -857 Descending Boston Center
Mon 07:01:35 PM 41.9964 -74.4864 109° East 294 338 11,200 -677 Descending Boston Center
Mon 07:02:36 PM 41.9692 -74.3797 109° East 280 322 11,000 -99 Descending Boston Center
Mon 07:03:36 PM 41.9458 -74.2847 108° East 268 308 11,000  Level Boston Center
Mon 07:04:40 PM 41.9211 -74.1917 110° East 265 305 11,000 48 Level Boston Center
Mon 07:05:40 PM 41.8961 -74.0906 108° East 265 305 11,100  Climbing Boston Center
Mon 07:06:41 PM 41.8711 -73.9964 110° East 266 306 11,000 -49 Descending Boston Center
Mon 07:07:43 PM 41.8472 -73.9019 109° East 268 308 11,000 -48 Level Boston Center
Mon 07:08:46 PM 41.7936 -73.8242 133° Southeast 265 305 10,900 -48 Descending Boston Center
Mon 07:09:47 PM 41.7417 -73.7553 135° Southeast 263 303 10,900 -488 Level Boston Center
Mon 07:10:49 PM 41.6875 -73.6844 136° Southeast 270 311 9,900 -1,230 Descending Boston Center
Mon 07:11:49 PM 41.6286 -73.6092 136° Southeast 290 334 8,400 -1,537 Descending Boston Center
Mon 07:12:50 PM 41.5703 -73.5314 135° Southeast 276 318 6,800 -1,161 Descending Boston Center
Mon 07:13:53 PM 41.5156 -73.4664 138° Southeast 266 306 6,000 -435 Descending Boston Center
Mon 07:14:54 PM 41.4600 -73.4139 145° Southeast 247 284 5,900  Descending Boston Center
Mon 07:15:54 PM 41.4031 -73.3592 144° Southeast 236 272 6,000 65 Climbing Boston Center
Mon 07:16:26 PM 41.3667 -73.3333 152° Southeast 232 267 6,000 -717 Level New York TRACON
Mon 07:17:26 PM 41.3000 -73.3167 169° South 258 297 4,900 -1,100 Descending New York TRACON
Mon 07:18:26 PM 41.2333 -73.3167 180° South 265 305 3,800 -950 Descending New York TRACON
Mon 07:19:26 PM 41.1667 -73.3167 180° South 256 295 3,000 -400 Descending New York TRACON
Mon 07:20:26 PM 41.1000 -73.3167 180° South 233 268 3,000  Level New York TRACON
Mon 07:21:21 PM 41.0333 -73.3167 180° South 227 261 3,000  Level New York TRACON
Mon 07:22:21 PM 40.9833 -73.3333 194° South 227 261 3,000 50 Level New York TRACON
Mon 07:23:21 PM 40.9167 -73.3500 191° South 224 258 3,100 -100 Climbing New York TRACON
Mon 07:24:21 PM 40.8667 -73.3833 207° Southwest 217 250 2,800 -750 Descending New York TRACON
Mon 07:25:21 PM 40.8167 -73.4000 194° South 185 213 1,600 -950 Descending New York TRACON
Mon 07:26:21 PM 40.7667 -73.4167 194° South 140 161 900 -700 Descending New York TRACON
Mon 07:29:00 PM 40.7288 -73.4134 229° Southwest  Level Estimated

Login

Don't have an account? Register now (free) for customized features, flight alerts, and more!